Time,TemperatureF,DewpointF,PressureIn,WindDirection,WindDirectionDegrees,WindSpeedMPH,WindSpeedGustMPH,Humidity,HourlyPrecipIn,Conditions,Clouds,dailyrainin,SoftwareType,DateUTC
2013-04-27 00:02:00,48.0,35.0,30.11,SW,236,2.0,5.0,60,0.00,,,0.00,,2013-04-27 05:02:00,
2013-04-27 00:12:00,48.0,35.0,30.11,SW,236,2.0,5.0,60,0.00,,,0.00,,2013-04-27 05:12:00,
2013-04-27 00:22:00,47.0,34.0,30.11,SW,234,2.0,6.0,61,0.00,,,0.00,,2013-04-27 05:22:00,
2013-04-27 00:32:00,48.0,34.0,30.11,SSW,201,3.0,7.0,58,0.00,,,0.00,,2013-04-27 05:32:00,
2013-04-27 00:42:00,48.0,34.0,30.11,SSW,201,3.0,7.0,58,0.00,,,0.00,,2013-04-27 05:42:00,
2013-04-27 00:52:00,47.0,34.0,30.11,SSW,210,2.0,8.0,60,0.00,,,0.00,,2013-04-27 05:52:00,
2013-04-27 01:01:00,47.0,34.0,30.10,South,182,3.0,7.0,60,0.00,,,0.00,,2013-04-27 06:01:00,
2013-04-27 01:12:00,47.0,34.0,30.10,South,182,3.0,7.0,60,0.00,,,0.00,,2013-04-27 06:12:00,
2013-04-27 01:22:00,48.0,34.0,30.10,SSW,202,3.0,7.0,58,0.00,,,0.00,,2013-04-27 06:22:00,
2013-04-27 01:32:00,49.0,34.0,30.10,South,171,4.0,9.0,56,0.00,,,0.00,,2013-04-27 06:32:00,
2013-04-27 01:42:00,49.0,34.0,30.10,South,171,4.0,9.0,56,0.00,,,0.00,,2013-04-27 06:42:00,
2013-04-27 01:52:00,49.0,34.0,30.10,South,186,4.0,9.0,56,0.00,,,0.00,,2013-04-27 06:52:00,
2013-04-27 02:01:00,48.0,34.0,30.10,SSW,203,3.0,6.0,58,0.00,,,0.00,,2013-04-27 07:01:00,
2013-04-27 02:11:00,48.0,34.0,30.10,SSW,203,3.0,6.0,58,0.00,,,0.00,,2013-04-27 07:11:00,
2013-04-27 02:21:00,46.0,33.0,30.10,SW,236,2.0,5.0,61,0.00,,,0.00,,2013-04-27 07:21:00,
2013-04-27 02:32:00,48.0,34.0,30.09,SSW,212,4.0,9.0,58,0.00,,,0.00,,2013-04-27 07:32:00,
2013-04-27 02:42:00,48.0,34.0,30.09,SSW,212,4.0,9.0,58,0.00,,,0.00,,2013-04-27 07:42:00,
2013-04-27 02:52:00,48.0,34.0,30.09,WSW,250,3.0,7.0,58,0.00,,,0.00,,2013-04-27 07:52:00,
2013-04-27 03:01:00,48.0,34.0,30.09,WSW,244,2.0,7.0,59,0.00,,,0.00,,2013-04-27 08:01:00,
2013-04-27 03:11:00,48.0,34.0,30.09,WSW,244,2.0,7.0,59,0.00,,,0.00,,2013-04-27 08:11:00,
2013-04-27 03:21:00,48.0,34.0,30.08,WSW,244,3.0,6.0,58,0.00,,,0.00,,2013-04-27 08:21:00,
2013-04-27 03:33:00,48.0,33.0,30.08,WSW,241,3.0,7.0,55,0.00,,,0.00,,2013-04-27 08:33:00,
2013-04-27 03:41:00,48.0,33.0,30.08,WSW,241,3.0,7.0,55,0.00,,,0.00,,2013-04-27 08:41:00,
2013-04-27 03:52:00,49.0,33.0,30.07,WSW,248,4.0,8.0,54,0.00,,,0.00,,2013-04-27 08:52:00,
2013-04-27 04:01:00,49.0,33.0,30.07,WSW,238,5.0,10.0,54,0.00,,,0.00,,2013-04-27 09:01:00,
2013-04-27 04:11:00,49.0,33.0,30.07,WSW,238,5.0,10.0,54,0.00,,,0.00,,2013-04-27 09:11:00,
2013-04-27 04:21:00,49.0,34.0,30.06,SW,229,4.0,9.0,55,0.00,,,0.00,,2013-04-27 09:21:00,
2013-04-27 04:33:00,48.0,34.0,30.06,WSW,253,3.0,7.0,57,0.00,,,0.00,,2013-04-27 09:33:00,
2013-04-27 04:42:00,48.0,34.0,30.06,WSW,253,3.0,7.0,57,0.00,,,0.00,,2013-04-27 09:42:00,
2013-04-27 04:53:00,49.0,34.0,30.06,SW,236,4.0,8.0,56,0.00,,,0.00,,2013-04-27 09:53:00,
2013-04-27 05:02:00,48.0,34.0,30.05,WSW,244,3.0,8.0,57,0.00,,,0.00,,2013-04-27 10:02:00,
2013-04-27 05:12:00,48.0,34.0,30.05,WSW,244,3.0,8.0,57,0.00,,,0.00,,2013-04-27 10:12:00,
2013-04-27 05:22:00,49.0,34.0,30.05,SW,232,5.0,8.0,55,0.00,,,0.00,,2013-04-27 10:22:00,
2013-04-27 05:32:00,48.0,34.0,30.04,WSW,249,4.0,7.0,57,0.00,,,0.00,,2013-04-27 10:32:00,
2013-04-27 05:42:00,48.0,34.0,30.04,WSW,249,4.0,7.0,57,0.00,,,0.00,,2013-04-27 10:42:00,
2013-04-27 05:52:00,47.0,33.0,30.04,WSW,238,3.0,7.0,58,0.00,,,0.00,,2013-04-27 10:52:00,
2013-04-27 06:02:00,48.0,34.0,30.04,WSW,252,4.0,6.0,57,0.00,,,0.00,,2013-04-27 11:02:00,
2013-04-27 06:11:00,48.0,34.0,30.04,WSW,252,4.0,6.0,57,0.00,,,0.00,,2013-04-27 11:11:00,
2013-04-27 06:22:00,48.0,33.0,30.03,SW,235,4.0,7.0,55,0.00,,,0.00,,2013-04-27 11:22:00,
2013-04-27 06:31:00,48.0,32.0,30.03,SW,233,4.0,9.0,54,0.00,,,0.00,,2013-04-27 11:31:00,
2013-04-27 06:41:00,48.0,32.0,30.03,SW,233,4.0,9.0,54,0.00,,,0.00,,2013-04-27 11:41:00,
2013-04-27 06:52:00,49.0,33.0,30.03,SW,225,4.0,8.0,53,0.00,,,0.00,,2013-04-27 11:52:00,
2013-04-27 07:01:00,49.0,33.0,30.03,SW,232,5.0,11.0,53,0.00,,,0.00,,2013-04-27 12:01:00,
2013-04-27 07:11:00,49.0,33.0,30.03,SW,232,5.0,11.0,53,0.00,,,0.00,,2013-04-27 12:11:00,
2013-04-27 07:22:00,50.0,33.0,30.03,SW,227,5.0,11.0,51,0.00,,,0.00,,2013-04-27 12:22:00,
2013-04-27 07:32:00,51.0,32.0,30.03,South,180,6.0,12.0,48,0.00,,,0.00,,2013-04-27 12:32:00,
2013-04-27 07:42:00,51.0,32.0,30.03,South,180,6.0,12.0,48,0.00,,,0.00,,2013-04-27 12:42:00,
2013-04-27 07:52:00,52.0,33.0,30.03,WSW,240,5.0,13.0,48,0.00,,,0.00,,2013-04-27 12:52:00,
2013-04-27 08:02:00,53.0,33.0,30.03,WSW,238,6.0,10.0,47,0.00,,,0.00,,2013-04-27 13:02:00,
2013-04-27 08:11:00,53.0,33.0,30.03,WSW,238,6.0,10.0,47,0.00,,,0.00,,2013-04-27 13:11:00,
2013-04-27 08:21:00,52.0,34.0,30.03,SW,225,6.0,11.0,50,0.00,,,0.00,,2013-04-27 13:21:00,
2013-04-27 08:32:00,52.0,34.0,30.03,WSW,240,7.0,19.0,50,0.00,,,0.00,,2013-04-27 13:32:00,
2013-04-27 08:42:00,52.0,34.0,30.03,WSW,240,7.0,19.0,50,0.00,,,0.00,,2013-04-27 13:42:00,
2013-04-27 08:52:00,53.0,34.0,30.03,WSW,250,11.0,18.0,49,0.00,,,0.00,,2013-04-27 13:52:00,
2013-04-27 09:02:00,53.0,34.0,30.03,WSW,250,11.0,18.0,49,0.00,,,0.00,,2013-04-27 14:02:00,
2013-04-27 09:11:00,53.0,34.0,30.03,WSW,250,11.0,18.0,49,0.00,,,0.00,,2013-04-27 14:11:00,
2013-04-27 09:21:00,54.0,37.0,30.02,SSE,153,3.0,10.0,52,0.00,,,0.00,,2013-04-27 14:21:00,
2013-04-27 09:31:00,55.0,37.0,30.02,SW,221,4.0,10.0,51,0.00,,,0.00,,2013-04-27 14:31:00,
2013-04-27 09:42:00,55.0,37.0,30.02,SW,221,4.0,10.0,51,0.00,,,0.00,,2013-04-27 14:42:00,
2013-04-27 09:52:00,57.0,35.0,30.01,SW,227,9.0,16.0,44,0.00,,,0.00,,2013-04-27 14:52:00,
2013-04-27 10:01:00,57.0,35.0,30.00,SW,219,8.0,17.0,44,0.00,,,0.00,,2013-04-27 15:01:00,
2013-04-27 10:12:00,57.0,35.0,30.00,SW,219,8.0,17.0,44,0.00,,,0.00,,2013-04-27 15:12:00,
2013-04-27 10:22:00,59.0,37.0,30.00,WSW,244,8.0,14.0,44,0.00,,,0.00,,2013-04-27 15:22:00,
2013-04-27 10:33:00,59.0,36.0,29.99,SW,219,9.0,15.0,42,0.00,,,0.00,,2013-04-27 15:33:00,
2013-04-27 10:42:00,59.0,36.0,29.99,SW,219,9.0,15.0,42,0.00,,,0.00,,2013-04-27 15:42:00,
2013-04-27 10:53:00,60.0,37.0,30.00,SSW,213,7.0,14.0,42,0.00,,,0.00,,2013-04-27 15:53:00,
2013-04-27 11:03:00,61.0,37.0,30.00,South,191,10.0,17.0,41,0.00,,,0.00,,2013-04-27 16:03:00,
2013-04-27 11:13:00,61.0,37.0,30.00,South,191,10.0,17.0,41,0.00,,,0.00,,2013-04-27 16:13:00,
2013-04-27 11:22:00,62.0,40.0,29.99,SE,143,6.0,13.0,44,0.00,,,0.00,,2013-04-27 16:22:00,
2013-04-27 11:32:00,63.0,42.0,29.98,SE,130,8.0,15.0,46,0.00,,,0.00,,2013-04-27 16:32:00,
2013-04-27 11:42:00,63.0,42.0,29.98,SE,130,8.0,15.0,46,0.00,,,0.00,,2013-04-27 16:42:00,
2013-04-27 11:53:00,64.0,43.0,29.98,SSE,150,4.0,14.0,46,0.00,,,0.00,,2013-04-27 16:53:00,
2013-04-27 12:02:00,65.0,41.0,29.97,WSW,243,5.0,13.0,41,0.00,,,0.00,,2013-04-27 17:02:00,
2013-04-27 12:12:00,65.0,41.0,29.97,WSW,243,5.0,13.0,41,0.00,,,0.00,,2013-04-27 17:12:00,
2013-04-27 12:22:00,65.0,41.0,29.96,SW,223,8.0,17.0,41,0.00,,,0.00,,2013-04-27 17:22:00,
2013-04-27 12:32:00,66.0,40.0,29.96,SW,230,7.0,14.0,39,0.00,,,0.00,,2013-04-27 17:32:00,
2013-04-27 12:42:00,66.0,40.0,29.96,SW,230,7.0,14.0,39,0.00,,,0.00,,2013-04-27 17:42:00,
2013-04-27 12:53:00,67.0,42.0,29.96,South,170,9.0,15.0,40,0.00,,,0.00,,2013-04-27 17:53:00,
2013-04-27 13:02:00,68.0,43.0,29.95,South,184,6.0,14.0,40,0.00,,,0.00,,2013-04-27 18:02:00,
2013-04-27 13:12:00,68.0,43.0,29.95,South,184,6.0,14.0,40,0.00,,,0.00,,2013-04-27 18:12:00,
2013-04-27 13:22:00,69.0,45.0,29.93,SSW,213,4.0,13.0,42,0.00,,,0.00,,2013-04-27 18:22:00,
2013-04-27 13:32:00,70.0,43.0,29.93,SSW,196,5.0,15.0,37,0.00,,,0.00,,2013-04-27 18:32:00,
2013-04-27 13:42:00,70.0,43.0,29.93,SSW,196,5.0,15.0,37,0.00,,,0.00,,2013-04-27 18:42:00,
2013-04-27 13:52:00,70.0,40.0,29.92,SSE,161,8.0,14.0,34,0.00,,,0.00,,2013-04-27 18:52:00,
2013-04-27 14:02:00,70.0,40.0,29.91,SSW,198,10.0,16.0,33,0.00,,,0.00,,2013-04-27 19:02:00,
2013-04-27 14:11:00,70.0,40.0,29.91,SSW,198,10.0,16.0,33,0.00,,,0.00,,2013-04-27 19:11:00,
2013-04-27 14:21:00,70.0,42.0,29.90,SW,228,10.0,17.0,36,0.00,,,0.00,,2013-04-27 19:21:00,
2013-04-27 14:32:00,70.0,40.0,29.89,South,180,9.0,14.0,34,0.00,,,0.00,,2013-04-27 19:32:00,
2013-04-27 14:42:00,70.0,40.0,29.89,South,180,9.0,14.0,34,0.00,,,0.00,,2013-04-27 19:42:00,
2013-04-27 14:53:00,71.0,42.0,29.89,South,188,8.0,17.0,35,0.00,,,0.00,,2013-04-27 19:53:00,
2013-04-27 15:02:00,71.0,40.0,29.88,WSW,239,9.0,18.0,33,0.00,,,0.00,,2013-04-27 20:02:00,
2013-04-27 15:11:00,71.0,40.0,29.88,WSW,239,9.0,18.0,33,0.00,,,0.00,,2013-04-27 20:11:00,
2013-04-27 15:21:00,72.0,43.0,29.88,WSW,246,8.0,16.0,35,0.00,,,0.00,,2013-04-27 20:21:00,
2013-04-27 15:32:00,72.0,42.0,29.87,WSW,237,7.0,17.0,34,0.00,,,0.00,,2013-04-27 20:32:00,
2013-04-27 15:42:00,72.0,42.0,29.87,WSW,237,7.0,17.0,34,0.00,,,0.00,,2013-04-27 20:42:00,
2013-04-27 15:52:00,73.0,42.0,29.87,WSW,242,8.0,17.0,33,0.00,,,0.00,,2013-04-27 20:52:00,
2013-04-27 16:02:00,73.0,41.0,29.86,SSW,207,8.0,18.0,32,0.00,,,0.00,,2013-04-27 21:02:00,
2013-04-27 16:11:00,73.0,41.0,29.86,SSW,207,8.0,18.0,32,0.00,,,0.00,,2013-04-27 21:11:00,
2013-04-27 16:21:00,74.0,41.0,29.86,SSW,200,7.0,17.0,31,0.00,,,0.00,,2013-04-27 21:21:00,
2013-04-27 16:33:00,74.0,41.0,29.85,SSW,206,9.0,17.0,30,0.00,,,0.00,,2013-04-27 21:33:00,
2013-04-27 16:42:00,74.0,41.0,29.85,SSW,206,9.0,17.0,30,0.00,,,0.00,,2013-04-27 21:42:00,
2013-04-27 16:53:00,74.0,41.0,29.85,SSW,194,9.0,15.0,31,0.00,,,0.00,,2013-04-27 21:53:00,
2013-04-27 17:02:00,73.0,43.0,29.84,South,182,8.0,15.0,34,0.00,,,0.00,,2013-04-27 22:02:00,
2013-04-27 17:12:00,73.0,43.0,29.84,South,182,8.0,15.0,34,0.00,,,0.00,,2013-04-27 22:12:00,
2013-04-27 17:22:00,73.0,43.0,29.83,SSW,207,7.0,17.0,34,0.00,,,0.00,,2013-04-27 22:22:00,
2013-04-27 17:32:00,73.0,41.0,29.82,SSE,158,11.0,17.0,32,0.00,,,0.00,,2013-04-27 22:32:00,
2013-04-27 17:42:00,73.0,41.0,29.82,SSE,158,11.0,17.0,32,0.00,,,0.00,,2013-04-27 22:42:00,
2013-04-27 17:52:00,72.0,42.0,29.82,SSW,192,8.0,15.0,34,0.00,,,0.00,,2013-04-27 22:52:00,
2013-04-27 18:02:00,71.0,45.0,29.81,SSW,202,4.0,15.0,39,0.00,,,0.00,,2013-04-27 23:02:00,
2013-04-27 18:11:00,71.0,45.0,29.81,SSW,202,4.0,15.0,39,0.00,,,0.00,,2013-04-27 23:11:00,
2013-04-27 18:22:00,69.0,44.0,29.81,SE,143,3.0,9.0,40,0.00,,,0.00,,2013-04-27 23:22:00,
2013-04-27 18:32:00,70.0,46.0,29.80,SE,144,3.0,8.0,42,0.00,,,0.00,,2013-04-27 23:32:00,
2013-04-27 18:42:00,70.0,46.0,29.80,SE,144,3.0,8.0,42,0.00,,,0.00,,2013-04-27 23:42:00,
2013-04-27 18:52:00,71.0,47.0,29.80,SSE,158,4.0,10.0,42,0.00,,,0.00,,2013-04-27 23:52:00,
2013-04-27 19:01:00,70.0,45.0,29.79,ESE,121,5.0,11.0,41,0.00,,,0.00,,2013-04-28 00:01:00,
2013-04-27 19:11:00,70.0,45.0,29.79,ESE,121,5.0,11.0,41,0.00,,,0.00,,2013-04-28 00:11:00,
2013-04-27 19:21:00,68.0,45.0,29.78,SSE,150,5.0,13.0,44,0.00,,,0.00,,2013-04-28 00:21:00,
2013-04-27 19:32:00,68.0,45.0,29.78,SSE,150,5.0,13.0,44,0.00,,,0.00,,2013-04-28 00:32:00,
2013-04-27 19:42:00,68.0,45.0,29.78,SSE,150,5.0,13.0,44,0.00,,,0.00,,2013-04-28 00:42:00,
2013-04-27 19:52:00,66.0,46.0,29.78,SSE,149,4.0,11.0,48,0.00,,,0.00,,2013-04-28 00:52:00,
2013-04-27 20:01:00,65.0,46.0,29.77,SE,138,4.0,11.0,51,0.00,,,0.00,,2013-04-28 01:01:00,
2013-04-27 20:11:00,65.0,46.0,29.77,SE,138,4.0,11.0,51,0.00,,,0.00,,2013-04-28 01:11:00,
2013-04-27 20:21:00,65.0,46.0,29.77,SE,138,4.0,11.0,51,0.00,,,0.00,,2013-04-28 01:21:00,
2013-04-27 20:31:00,62.0,46.0,29.77,SSW,195,2.0,8.0,56,0.00,,,0.00,,2013-04-28 01:31:00,
2013-04-27 20:42:00,62.0,46.0,29.77,SSW,195,2.0,8.0,56,0.00,,,0.00,,2013-04-28 01:42:00,
2013-04-27 20:52:00,60.0,46.0,29.76,South,186,3.0,9.0,59,0.00,,,0.00,,2013-04-28 01:52:00,
2013-04-27 21:02:00,58.0,44.0,29.76,South,182,3.0,9.0,59,0.00,,,0.00,,2013-04-28 02:02:00,
2013-04-27 21:12:00,58.0,44.0,29.76,South,182,3.0,9.0,59,0.00,,,0.00,,2013-04-28 02:12:00,
2013-04-27 21:21:00,57.0,41.0,29.76,SW,221,2.0,6.0,54,0.00,,,0.00,,2013-04-28 02:21:00,
2013-04-27 21:32:00,55.0,41.0,29.76,SW,218,1.0,7.0,58,0.00,,,0.00,,2013-04-28 02:32:00,
2013-04-27 21:42:00,55.0,41.0,29.76,SW,218,1.0,7.0,58,0.00,,,0.00,,2013-04-28 02:42:00,
2013-04-27 21:52:00,54.0,40.0,29.76,WSW,239,2.0,7.0,59,0.00,,,0.00,,2013-04-28 02:52:00,
2013-04-27 22:01:00,54.0,39.0,29.76,South,183,2.0,7.0,57,0.00,,,0.00,,2013-04-28 03:01:00,
2013-04-27 22:11:00,54.0,39.0,29.76,South,183,2.0,7.0,57,0.00,,,0.00,,2013-04-28 03:11:00,
2013-04-27 22:21:00,54.0,40.0,29.75,SSW,202,2.0,9.0,58,0.00,,,0.00,,2013-04-28 03:21:00,
2013-04-27 22:32:00,53.0,38.0,29.75,South,182,2.0,6.0,57,0.00,,,0.00,,2013-04-28 03:32:00,
2013-04-27 22:43:00,53.0,38.0,29.75,South,182,2.0,6.0,57,0.00,,,0.00,,2013-04-28 03:43:00,
2013-04-27 22:53:00,53.0,38.0,29.75,South,182,2.0,6.0,57,0.00,,,0.00,,2013-04-28 03:53:00,
2013-04-27 23:02:00,52.0,36.0,29.75,South,169,2.0,8.0,55,0.00,,,0.00,,2013-04-28 04:02:00,
2013-04-27 23:13:00,52.0,36.0,29.75,South,169,2.0,8.0,55,0.00,,,0.00,,2013-04-28 04:13:00,
2013-04-27 23:22:00,51.0,34.0,29.74,South,175,2.0,7.0,52,0.00,,,0.00,,2013-04-28 04:22:00,
2013-04-27 23:32:00,50.0,33.0,29.74,SSW,196,1.0,6.0,52,0.00,,,0.00,,2013-04-28 04:32:00,
2013-04-27 23:42:00,50.0,33.0,29.74,SSW,196,1.0,6.0,52,0.00,,,0.00,,2013-04-28 04:42:00,
2013-04-27 23:52:00,50.0,33.0,29.74,SSE,155,1.0,8.0,52,0.00,,,0.00,,2013-04-28 04:52:00,